sensor_id;sensor_type;location;lat;lon;timestamp;P1;durP1;ratioP1;P2;durP2;ratioP2
52614;SDS011;38508;53.158;6.614;2022-08-20T00:00:56;11.55;;;7.32;;
52614;SDS011;38508;53.158;6.614;2022-08-20T00:03:40;10.35;;;7.97;;
52614;SDS011;38508;53.158;6.614;2022-08-20T00:06:08;10.70;;;7.65;;
52614;SDS011;38508;53.158;6.614;2022-08-20T00:08:38;11.52;;;8.45;;
52614;SDS011;38508;53.158;6.614;2022-08-20T00:11:06;10.75;;;7.78;;
52614;SDS011;38508;53.158;6.614;2022-08-20T00:13:36;14.93;;;10.63;;
52614;SDS011;38508;53.158;6.614;2022-08-20T00:16:05;13.43;;;8.82;;
52614;SDS011;38508;53.158;6.614;2022-08-20T00:18:31;11.02;;;8.13;;
52614;SDS011;38508;53.158;6.614;2022-08-20T00:20:58;11.02;;;7.90;;
52614;SDS011;38508;53.158;6.614;2022-08-20T00:23:25;10.95;;;6.70;;
52614;SDS011;38508;53.158;6.614;2022-08-20T00:25:51;10.73;;;7.32;;
52614;SDS011;38508;53.158;6.614;2022-08-20T00:28:17;11.45;;;7.75;;
52614;SDS011;38508;53.158;6.614;2022-08-20T00:30:43;10.70;;;6.82;;
52614;SDS011;38508;53.158;6.614;2022-08-20T00:33:12;13.65;;;7.38;;
52614;SDS011;38508;53.158;6.614;2022-08-20T00:35:41;14.52;;;8.18;;
52614;SDS011;38508;53.158;6.614;2022-08-20T00:38:09;14.77;;;9.27;;
52614;SDS011;38508;53.158;6.614;2022-08-20T00:40:37;11.32;;;7.90;;
52614;SDS011;38508;53.158;6.614;2022-08-20T00:43:23;16.10;;;8.10;;
52614;SDS011;38508;53.158;6.614;2022-08-20T00:46:20;13.65;;;7.85;;
52614;SDS011;38508;53.158;6.614;2022-08-20T00:48:50;9.85;;;7.38;;
52614;SDS011;38508;53.158;6.614;2022-08-20T00:53:54;15.55;;;7.40;;
52614;SDS011;38508;53.158;6.614;2022-08-20T00:56:22;10.50;;;6.72;;
52614;SDS011;38508;53.158;6.614;2022-08-20T00:58:48;9.13;;;5.82;;
52614;SDS011;38508;53.158;6.614;2022-08-20T01:01:16;10.93;;;7.10;;
52614;SDS011;38508;53.158;6.614;2022-08-20T01:03:43;10.00;;;6.60;;
52614;SDS011;38508;53.158;6.614;2022-08-20T01:06:09;9.88;;;5.85;;
52614;SDS011;38508;53.158;6.614;2022-08-20T01:08:38;7.28;;;6.03;;
52614;SDS011;38508;53.158;6.614;2022-08-20T01:11:05;9.57;;;5.82;;
52614;SDS011;38508;53.158;6.614;2022-08-20T01:13:39;9.48;;;5.82;;
52614;SDS011;38508;53.158;6.614;2022-08-20T01:16:09;6.72;;;5.82;;
52614;SDS011;38508;53.158;6.614;2022-08-20T01:18:42;8.80;;;6.17;;
52614;SDS011;38508;53.158;6.614;2022-08-20T01:21:08;21.55;;;10.25;;
52614;SDS011;38508;53.158;6.614;2022-08-20T01:23:41;12.05;;;6.95;;
52614;SDS011;38508;53.158;6.614;2022-08-20T01:28:48;12.95;;;6.85;;
52614;SDS011;38508;53.158;6.614;2022-08-20T01:31:18;14.85;;;7.65;;
52614;SDS011;38508;53.158;6.614;2022-08-20T01:33:46;14.52;;;7.70;;
52614;SDS011;38508;53.158;6.614;2022-08-20T01:36:13;11.32;;;6.38;;
52614;SDS011;38508;53.158;6.614;2022-08-20T01:38:41;13.63;;;6.78;;
52614;SDS011;38508;53.158;6.614;2022-08-20T01:43:47;13.40;;;6.22;;
52614;SDS011;38508;53.158;6.614;2022-08-20T01:46:15;14.80;;;6.35;;
52614;SDS011;38508;53.158;6.614;2022-08-20T01:48:42;14.52;;;5.88;;
52614;SDS011;38508;53.158;6.614;2022-08-20T01:51:19;11.75;;;5.45;;
52614;SDS011;38508;53.158;6.614;2022-08-20T01:53:50;11.25;;;5.28;;
52614;SDS011;38508;53.158;6.614;2022-08-20T01:56:18;12.00;;;5.53;;
52614;SDS011;38508;53.158;6.614;2022-08-20T01:58:48;10.18;;;5.80;;
52614;SDS011;38508;53.158;6.614;2022-08-20T02:03:50;10.35;;;5.40;;
52614;SDS011;38508;53.158;6.614;2022-08-20T02:06:17;9.07;;;5.38;;
52614;SDS011;38508;53.158;6.614;2022-08-20T02:08:44;16.45;;;7.32;;
52614;SDS011;38508;53.158;6.614;2022-08-20T02:11:10;9.60;;;5.68;;
52614;SDS011;38508;53.158;6.614;2022-08-20T02:13:36;7.13;;;5.32;;
52614;SDS011;38508;53.158;6.614;2022-08-20T02:16:04;9.77;;;4.93;;
52614;SDS011;38508;53.158;6.614;2022-08-20T02:18:30;12.18;;;5.13;;
52614;SDS011;38508;53.158;6.614;2022-08-20T02:20:56;12.27;;;5.35;;
52614;SDS011;38508;53.158;6.614;2022-08-20T02:23:22;9.10;;;5.57;;
52614;SDS011;38508;53.158;6.614;2022-08-20T02:25:48;11.60;;;5.38;;
52614;SDS011;38508;53.158;6.614;2022-08-20T02:28:15;8.43;;;4.72;;
52614;SDS011;38508;53.158;6.614;2022-08-20T02:30:45;10.10;;;5.03;;
52614;SDS011;38508;53.158;6.614;2022-08-20T02:33:15;11.02;;;4.93;;
52614;SDS011;38508;53.158;6.614;2022-08-20T02:35:44;11.75;;;5.88;;
52614;SDS011;38508;53.158;6.614;2022-08-20T02:38:12;12.32;;;4.93;;
52614;SDS011;38508;53.158;6.614;2022-08-20T02:40:39;12.38;;;5.13;;
52614;SDS011;38508;53.158;6.614;2022-08-20T02:43:05;10.18;;;4.90;;
52614;SDS011;38508;53.158;6.614;2022-08-20T02:45:32;9.90;;;5.40;;
52614;SDS011;38508;53.158;6.614;2022-08-20T02:48:08;8.43;;;5.03;;
52614;SDS011;38508;53.158;6.614;2022-08-20T02:50:35;8.15;;;4.70;;
52614;SDS011;38508;53.158;6.614;2022-08-20T02:53:01;8.07;;;4.45;;
52614;SDS011;38508;53.158;6.614;2022-08-20T02:55:27;10.00;;;4.45;;
52614;SDS011;38508;53.158;6.614;2022-08-20T02:57:54;9.93;;;4.97;;
52614;SDS011;38508;53.158;6.614;2022-08-20T03:00:20;8.55;;;4.60;;
52614;SDS011;38508;53.158;6.614;2022-08-20T03:02:46;11.55;;;5.03;;
52614;SDS011;38508;53.158;6.614;2022-08-20T03:05:13;10.38;;;5.60;;
52614;SDS011;38508;53.158;6.614;2022-08-20T03:07:47;9.40;;;4.80;;
52614;SDS011;38508;53.158;6.614;2022-08-20T03:10:20;11.43;;;5.07;;
52614;SDS011;38508;53.158;6.614;2022-08-20T03:12:53;8.15;;;4.45;;
52614;SDS011;38508;53.158;6.614;2022-08-20T03:15:19;9.70;;;4.30;;
52614;SDS011;38508;53.158;6.614;2022-08-20T03:17:45;6.35;;;4.10;;
52614;SDS011;38508;53.158;6.614;2022-08-20T03:20:11;11.57;;;4.65;;
52614;SDS011;38508;53.158;6.614;2022-08-20T03:22:38;9.15;;;4.80;;
52614;SDS011;38508;53.158;6.614;2022-08-20T03:25:04;10.23;;;4.40;;
52614;SDS011;38508;53.158;6.614;2022-08-20T03:27:31;6.38;;;4.68;;
52614;SDS011;38508;53.158;6.614;2022-08-20T03:29:56;8.60;;;4.15;;
52614;SDS011;38508;53.158;6.614;2022-08-20T03:32:22;6.45;;;4.45;;
52614;SDS011;38508;53.158;6.614;2022-08-20T03:34:48;9.60;;;4.70;;
52614;SDS011;38508;53.158;6.614;2022-08-20T03:37:14;12.27;;;5.07;;
52614;SDS011;38508;53.158;6.614;2022-08-20T03:39:39;7.82;;;4.75;;
52614;SDS011;38508;53.158;6.614;2022-08-20T03:42:05;7.97;;;4.22;;
52614;SDS011;38508;53.158;6.614;2022-08-20T03:44:31;8.85;;;4.57;;
52614;SDS011;38508;53.158;6.614;2022-08-20T03:46:57;8.52;;;4.47;;
52614;SDS011;38508;53.158;6.614;2022-08-20T03:49:23;9.25;;;4.30;;
52614;SDS011;38508;53.158;6.614;2022-08-20T03:51:49;11.88;;;5.03;;
52614;SDS011;38508;53.158;6.614;2022-08-20T03:54:15;7.45;;;4.38;;
52614;SDS011;38508;53.158;6.614;2022-08-20T03:56:41;10.13;;;4.50;;
52614;SDS011;38508;53.158;6.614;2022-08-20T03:59:07;7.50;;;4.70;;
52614;SDS011;38508;53.158;6.614;2022-08-20T04:01:33;11.35;;;4.30;;
52614;SDS011;38508;53.158;6.614;2022-08-20T04:03:59;7.93;;;4.65;;
52614;SDS011;38508;53.158;6.614;2022-08-20T04:06:25;6.97;;;3.83;;
52614;SDS011;38508;53.158;6.614;2022-08-20T04:08:53;11.30;;;5.35;;
52614;SDS011;38508;53.158;6.614;2022-08-20T04:11:20;7.25;;;4.72;;
52614;SDS011;38508;53.158;6.614;2022-08-20T04:13:45;8.57;;;4.95;;
52614;SDS011;38508;53.158;6.614;2022-08-20T04:16:11;12.80;;;4.60;;
52614;SDS011;38508;53.158;6.614;2022-08-20T04:18:37;11.57;;;5.10;;
52614;SDS011;38508;53.158;6.614;2022-08-20T04:21:02;12.82;;;5.85;;
52614;SDS011;38508;53.158;6.614;2022-08-20T04:23:32;11.00;;;5.00;;
52614;SDS011;38508;53.158;6.614;2022-08-20T04:25:57;6.22;;;3.72;;
52614;SDS011;38508;53.158;6.614;2022-08-20T04:28:24;10.43;;;4.72;;
52614;SDS011;38508;53.158;6.614;2022-08-20T04:30:53;9.07;;;4.20;;
52614;SDS011;38508;53.158;6.614;2022-08-20T04:33:24;8.32;;;4.30;;
52614;SDS011;38508;53.158;6.614;2022-08-20T04:35:52;9.25;;;4.05;;
52614;SDS011;38508;53.158;6.614;2022-08-20T04:38:20;7.40;;;3.90;;
52614;SDS011;38508;53.158;6.614;2022-08-20T04:40:46;8.88;;;4.28;;
52614;SDS011;38508;53.158;6.614;2022-08-20T04:43:35;7.07;;;4.13;;
52614;SDS011;38508;53.158;6.614;2022-08-20T04:46:03;10.52;;;5.10;;
52614;SDS011;38508;53.158;6.614;2022-08-20T04:48:31;11.55;;;4.60;;
52614;SDS011;38508;53.158;6.614;2022-08-20T04:50:57;8.68;;;3.80;;
52614;SDS011;38508;53.158;6.614;2022-08-20T04:53:24;13.40;;;4.82;;
52614;SDS011;38508;53.158;6.614;2022-08-20T04:55:52;10.40;;;4.10;;
52614;SDS011;38508;53.158;6.614;2022-08-20T04:58:25;8.10;;;4.43;;
52614;SDS011;38508;53.158;6.614;2022-08-20T05:00:55;10.40;;;3.75;;
52614;SDS011;38508;53.158;6.614;2022-08-20T05:03:22;8.88;;;3.83;;
52614;SDS011;38508;53.158;6.614;2022-08-20T05:05:49;8.60;;;4.05;;
52614;SDS011;38508;53.158;6.614;2022-08-20T05:08:17;9.70;;;4.00;;
52614;SDS011;38508;53.158;6.614;2022-08-20T05:10:44;8.02;;;3.60;;
52614;SDS011;38508;53.158;6.614;2022-08-20T05:13:10;10.38;;;3.60;;
52614;SDS011;38508;53.158;6.614;2022-08-20T05:15:36;9.32;;;3.40;;
52614;SDS011;38508;53.158;6.614;2022-08-20T05:18:04;8.10;;;4.35;;
52614;SDS011;38508;53.158;6.614;2022-08-20T05:20:33;7.95;;;3.50;;
52614;SDS011;38508;53.158;6.614;2022-08-20T05:23:04;8.00;;;3.20;;
52614;SDS011;38508;53.158;6.614;2022-08-20T05:25:31;7.65;;;3.35;;
52614;SDS011;38508;53.158;6.614;2022-08-20T05:27:58;6.65;;;3.55;;
52614;SDS011;38508;53.158;6.614;2022-08-20T05:30:28;10.13;;;3.58;;
52614;SDS011;38508;53.158;6.614;2022-08-20T05:33:00;7.05;;;3.47;;
52614;SDS011;38508;53.158;6.614;2022-08-20T05:35:27;6.47;;;3.45;;
52614;SDS011;38508;53.158;6.614;2022-08-20T05:37:54;8.23;;;3.97;;
52614;SDS011;38508;53.158;6.614;2022-08-20T05:40:20;6.72;;;3.17;;
52614;SDS011;38508;53.158;6.614;2022-08-20T05:42:47;9.23;;;3.95;;
52614;SDS011;38508;53.158;6.614;2022-08-20T05:45:12;7.18;;;3.15;;
52614;SDS011;38508;53.158;6.614;2022-08-20T05:47:41;6.35;;;3.42;;
52614;SDS011;38508;53.158;6.614;2022-08-20T05:50:07;6.32;;;2.92;;
52614;SDS011;38508;53.158;6.614;2022-08-20T05:52:34;7.15;;;3.13;;
52614;SDS011;38508;53.158;6.614;2022-08-20T05:54:59;6.50;;;3.17;;
52614;SDS011;38508;53.158;6.614;2022-08-20T05:57:25;5.85;;;2.88;;
52614;SDS011;38508;53.158;6.614;2022-08-20T05:59:50;7.55;;;2.85;;
52614;SDS011;38508;53.158;6.614;2022-08-20T06:02:17;9.07;;;3.00;;
52614;SDS011;38508;53.158;6.614;2022-08-20T06:05:01;5.97;;;2.65;;
52614;SDS011;38508;53.158;6.614;2022-08-20T06:07:28;7.18;;;2.80;;
52614;SDS011;38508;53.158;6.614;2022-08-20T06:09:53;11.73;;;2.85;;
52614;SDS011;38508;53.158;6.614;2022-08-20T06:12:19;6.32;;;3.10;;
52614;SDS011;38508;53.158;6.614;2022-08-20T06:14:44;6.97;;;2.65;;
52614;SDS011;38508;53.158;6.614;2022-08-20T06:17:14;7.10;;;2.35;;
52614;SDS011;38508;53.158;6.614;2022-08-20T06:19:42;4.68;;;2.50;;
52614;SDS011;38508;53.158;6.614;2022-08-20T06:22:09;9.50;;;2.20;;
52614;SDS011;38508;53.158;6.614;2022-08-20T06:24:35;12.23;;;2.60;;
52614;SDS011;38508;53.158;6.614;2022-08-20T06:27:02;6.97;;;2.22;;
52614;SDS011;38508;53.158;6.614;2022-08-20T06:29:29;6.85;;;2.55;;
52614;SDS011;38508;53.158;6.614;2022-08-20T06:31:57;7.65;;;2.50;;
52614;SDS011;38508;53.158;6.614;2022-08-20T06:34:23;6.57;;;1.98;;
52614;SDS011;38508;53.158;6.614;2022-08-20T06:36:52;12.63;;;2.15;;
52614;SDS011;38508;53.158;6.614;2022-08-20T06:39:18;10.13;;;2.10;;
52614;SDS011;38508;53.158;6.614;2022-08-20T06:41:44;7.38;;;2.00;;
52614;SDS011;38508;53.158;6.614;2022-08-20T06:44:10;6.18;;;1.70;;
52614;SDS011;38508;53.158;6.614;2022-08-20T06:46:36;8.77;;;2.08;;
52614;SDS011;38508;53.158;6.614;2022-08-20T06:49:05;9.20;;;2.05;;
52614;SDS011;38508;53.158;6.614;2022-08-20T06:51:32;6.70;;;1.55;;
52614;SDS011;38508;53.158;6.614;2022-08-20T06:53:58;7.93;;;2.00;;
52614;SDS011;38508;53.158;6.614;2022-08-20T06:56:24;10.77;;;1.90;;
52614;SDS011;38508;53.158;6.614;2022-08-20T06:58:50;7.75;;;1.27;;
52614;SDS011;38508;53.158;6.614;2022-08-20T07:01:15;11.00;;;2.10;;
52614;SDS011;38508;53.158;6.614;2022-08-20T07:03:45;6.82;;;1.50;;
52614;SDS011;38508;53.158;6.614;2022-08-20T07:06:14;6.60;;;1.70;;
52614;SDS011;38508;53.158;6.614;2022-08-20T07:08:41;12.00;;;1.38;;
52614;SDS011;38508;53.158;6.614;2022-08-20T07:11:07;6.68;;;1.73;;
52614;SDS011;38508;53.158;6.614;2022-08-20T07:13:33;8.95;;;1.67;;
52614;SDS011;38508;53.158;6.614;2022-08-20T07:16:03;6.40;;;1.58;;
52614;SDS011;38508;53.158;6.614;2022-08-20T07:18:29;8.55;;;1.50;;
52614;SDS011;38508;53.158;6.614;2022-08-20T07:20:55;7.18;;;1.45;;
52614;SDS011;38508;53.158;6.614;2022-08-20T07:23:22;8.07;;;1.60;;
52614;SDS011;38508;53.158;6.614;2022-08-20T07:25:49;6.63;;;1.55;;
52614;SDS011;38508;53.158;6.614;2022-08-20T07:28:17;7.00;;;1.20;;
52614;SDS011;38508;53.158;6.614;2022-08-20T07:30:46;5.90;;;0.98;;
52614;SDS011;38508;53.158;6.614;2022-08-20T07:33:31;8.10;;;1.00;;
52614;SDS011;38508;53.158;6.614;2022-08-20T07:35:57;9.48;;;1.33;;
52614;SDS011;38508;53.158;6.614;2022-08-20T07:38:26;6.47;;;1.00;;
52614;SDS011;38508;53.158;6.614;2022-08-20T07:40:55;6.05;;;1.10;;
52614;SDS011;38508;53.158;6.614;2022-08-20T07:43:23;9.05;;;1.58;;
52614;SDS011;38508;53.158;6.614;2022-08-20T07:45:49;10.15;;;1.50;;
52614;SDS011;38508;53.158;6.614;2022-08-20T07:48:16;7.65;;;1.40;;
52614;SDS011;38508;53.158;6.614;2022-08-20T07:50:42;6.03;;;1.15;;
52614;SDS011;38508;53.158;6.614;2022-08-20T07:53:08;5.60;;;1.25;;
52614;SDS011;38508;53.158;6.614;2022-08-20T07:55:36;8.43;;;1.20;;
52614;SDS011;38508;53.158;6.614;2022-08-20T07:58:06;5.65;;;1.17;;
52614;SDS011;38508;53.158;6.614;2022-08-20T08:00:36;7.97;;;1.65;;
52614;SDS011;38508;53.158;6.614;2022-08-20T08:03:02;5.40;;;1.35;;
52614;SDS011;38508;53.158;6.614;2022-08-20T08:05:28;9.18;;;1.15;;
52614;SDS011;38508;53.158;6.614;2022-08-20T08:07:55;4.25;;;0.80;;
52614;SDS011;38508;53.158;6.614;2022-08-20T08:10:22;8.68;;;1.23;;
52614;SDS011;38508;53.158;6.614;2022-08-20T08:12:50;8.27;;;1.38;;
52614;SDS011;38508;53.158;6.614;2022-08-20T08:15:20;6.30;;;1.02;;
52614;SDS011;38508;53.158;6.614;2022-08-20T08:17:51;9.07;;;1.55;;
52614;SDS011;38508;53.158;6.614;2022-08-20T08:20:20;9.40;;;1.20;;
52614;SDS011;38508;53.158;6.614;2022-08-20T08:22:47;9.82;;;1.40;;
52614;SDS011;38508;53.158;6.614;2022-08-20T08:25:13;7.93;;;1.42;;
52614;SDS011;38508;53.158;6.614;2022-08-20T08:27:41;3.78;;;0.90;;
52614;SDS011;38508;53.158;6.614;2022-08-20T08:30:07;7.75;;;1.13;;
52614;SDS011;38508;53.158;6.614;2022-08-20T08:32:34;7.63;;;1.20;;
52614;SDS011;38508;53.158;6.614;2022-08-20T08:35:05;6.13;;;0.70;;
52614;SDS011;38508;53.158;6.614;2022-08-20T08:37:33;7.05;;;1.02;;
52614;SDS011;38508;53.158;6.614;2022-08-20T08:39:58;5.40;;;0.98;;
52614;SDS011;38508;53.158;6.614;2022-08-20T08:44:58;4.63;;;0.80;;
52614;SDS011;38508;53.158;6.614;2022-08-20T08:47:28;6.90;;;0.90;;
52614;SDS011;38508;53.158;6.614;2022-08-20T08:49:58;6.07;;;0.80;;
52614;SDS011;38508;53.158;6.614;2022-08-20T08:52:30;5.90;;;0.90;;
52614;SDS011;38508;53.158;6.614;2022-08-20T08:55:00;4.10;;;0.80;;
52614;SDS011;38508;53.158;6.614;2022-08-20T08:57:29;8.18;;;1.00;;
52614;SDS011;38508;53.158;6.614;2022-08-20T08:59:57;6.07;;;1.23;;
52614;SDS011;38508;53.158;6.614;2022-08-20T09:02:25;4.75;;;0.80;;
52614;SDS011;38508;53.158;6.614;2022-08-20T09:04:56;8.73;;;1.10;;
52614;SDS011;38508;53.158;6.614;2022-08-20T09:07:32;4.38;;;0.77;;
52614;SDS011;38508;53.158;6.614;2022-08-20T09:09:59;6.03;;;0.85;;
52614;SDS011;38508;53.158;6.614;2022-08-20T09:12:26;9.80;;;1.67;;
52614;SDS011;38508;53.158;6.614;2022-08-20T09:14:52;8.55;;;1.15;;
52614;SDS011;38508;53.158;6.614;2022-08-20T09:17:18;6.25;;;0.90;;
52614;SDS011;38508;53.158;6.614;2022-08-20T09:19:46;7.85;;;0.98;;
52614;SDS011;38508;53.158;6.614;2022-08-20T09:22:13;8.73;;;1.02;;
52614;SDS011;38508;53.158;6.614;2022-08-20T09:24:41;2.58;;;0.98;;
52614;SDS011;38508;53.158;6.614;2022-08-20T09:27:07;4.40;;;0.90;;
52614;SDS011;38508;53.158;6.614;2022-08-20T09:29:34;4.38;;;0.85;;
52614;SDS011;38508;53.158;6.614;2022-08-20T09:32:04;9.27;;;1.35;;
52614;SDS011;38508;53.158;6.614;2022-08-20T09:34:36;6.00;;;1.05;;
52614;SDS011;38508;53.158;6.614;2022-08-20T09:37:04;8.82;;;1.38;;
52614;SDS011;38508;53.158;6.614;2022-08-20T09:39:29;5.22;;;0.90;;
52614;SDS011;38508;53.158;6.614;2022-08-20T09:42:04;8.95;;;1.13;;
52614;SDS011;38508;53.158;6.614;2022-08-20T09:44:43;5.43;;;0.85;;
52614;SDS011;38508;53.158;6.614;2022-08-20T09:47:09;7.18;;;1.55;;
52614;SDS011;38508;53.158;6.614;2022-08-20T09:49:35;4.07;;;1.17;;
52614;SDS011;38508;53.158;6.614;2022-08-20T09:52:02;3.97;;;0.73;;
52614;SDS011;38508;53.158;6.614;2022-08-20T09:54:30;5.30;;;1.02;;
52614;SDS011;38508;53.158;6.614;2022-08-20T09:56:58;6.95;;;1.00;;
52614;SDS011;38508;53.158;6.614;2022-08-20T09:59:27;5.90;;;0.90;;
52614;SDS011;38508;53.158;6.614;2022-08-20T10:01:54;7.53;;;0.85;;
52614;SDS011;38508;53.158;6.614;2022-08-20T10:04:20;3.10;;;0.80;;
52614;SDS011;38508;53.158;6.614;2022-08-20T10:06:45;5.93;;;1.10;;
52614;SDS011;38508;53.158;6.614;2022-08-20T10:09:11;5.60;;;1.17;;
52614;SDS011;38508;53.158;6.614;2022-08-20T10:11:37;4.45;;;0.90;;
52614;SDS011;38508;53.158;6.614;2022-08-20T10:14:03;5.40;;;1.10;;
52614;SDS011;38508;53.158;6.614;2022-08-20T10:16:29;5.55;;;1.15;;
52614;SDS011;38508;53.158;6.614;2022-08-20T10:18:56;6.82;;;1.05;;
52614;SDS011;38508;53.158;6.614;2022-08-20T10:21:22;8.63;;;1.00;;
52614;SDS011;38508;53.158;6.614;2022-08-20T10:23:47;7.82;;;0.90;;
52614;SDS011;38508;53.158;6.614;2022-08-20T10:26:14;7.40;;;1.27;;
52614;SDS011;38508;53.158;6.614;2022-08-20T10:28:41;6.10;;;1.05;;
52614;SDS011;38508;53.158;6.614;2022-08-20T10:31:08;10.40;;;1.27;;
52614;SDS011;38508;53.158;6.614;2022-08-20T10:33:36;7.00;;;1.10;;
52614;SDS011;38508;53.158;6.614;2022-08-20T10:36:13;7.07;;;1.17;;
52614;SDS011;38508;53.158;6.614;2022-08-20T10:38:41;6.55;;;1.10;;
52614;SDS011;38508;53.158;6.614;2022-08-20T10:41:08;6.82;;;1.02;;
52614;SDS011;38508;53.158;6.614;2022-08-20T10:43:34;3.53;;;0.85;;
52614;SDS011;38508;53.158;6.614;2022-08-20T10:45:59;7.93;;;1.40;;
52614;SDS011;38508;53.158;6.614;2022-08-20T10:48:26;3.85;;;0.90;;
52614;SDS011;38508;53.158;6.614;2022-08-20T10:50:51;6.43;;;1.00;;
52614;SDS011;38508;53.158;6.614;2022-08-20T10:53:17;6.88;;;1.45;;
52614;SDS011;38508;53.158;6.614;2022-08-20T10:55:43;4.90;;;1.10;;
52614;SDS011;38508;53.158;6.614;2022-08-20T10:58:09;7.85;;;1.38;;
52614;SDS011;38508;53.158;6.614;2022-08-20T11:00:37;7.47;;;1.08;;
52614;SDS011;38508;53.158;6.614;2022-08-20T11:03:03;5.85;;;1.00;;
52614;SDS011;38508;53.158;6.614;2022-08-20T11:05:29;6.75;;;1.20;;
52614;SDS011;38508;53.158;6.614;2022-08-20T11:07:54;6.00;;;1.10;;
52614;SDS011;38508;53.158;6.614;2022-08-20T11:10:20;6.68;;;1.38;;
52614;SDS011;38508;53.158;6.614;2022-08-20T11:12:46;6.25;;;1.00;;
52614;SDS011;38508;53.158;6.614;2022-08-20T11:15:13;5.55;;;1.08;;
52614;SDS011;38508;53.158;6.614;2022-08-20T11:17:40;5.68;;;1.10;;
52614;SDS011;38508;53.158;6.614;2022-08-20T11:20:07;5.53;;;0.88;;
52614;SDS011;38508;53.158;6.614;2022-08-20T11:22:34;8.85;;;1.17;;
52614;SDS011;38508;53.158;6.614;2022-08-20T11:25:01;7.13;;;1.20;;
52614;SDS011;38508;53.158;6.614;2022-08-20T11:27:36;6.03;;;0.95;;
52614;SDS011;38508;53.158;6.614;2022-08-20T11:30:05;5.88;;;1.17;;
52614;SDS011;38508;53.158;6.614;2022-08-20T11:32:32;6.90;;;1.65;;
52614;SDS011;38508;53.158;6.614;2022-08-20T11:34:58;8.13;;;1.20;;
52614;SDS011;38508;53.158;6.614;2022-08-20T11:37:24;5.78;;;1.17;;
52614;SDS011;38508;53.158;6.614;2022-08-20T11:39:51;4.47;;;1.17;;
52614;SDS011;38508;53.158;6.614;2022-08-20T11:42:16;9.05;;;1.63;;
52614;SDS011;38508;53.158;6.614;2022-08-20T11:44:42;8.82;;;1.83;;
52614;SDS011;38508;53.158;6.614;2022-08-20T11:47:08;6.93;;;1.20;;
52614;SDS011;38508;53.158;6.614;2022-08-20T11:49:44;7.18;;;1.42;;
52614;SDS011;38508;53.158;6.614;2022-08-20T11:52:10;13.32;;;1.50;;
52614;SDS011;38508;53.158;6.614;2022-08-20T11:54:35;9.15;;;1.83;;
52614;SDS011;38508;53.158;6.614;2022-08-20T11:57:04;7.20;;;1.30;;
52614;SDS011;38508;53.158;6.614;2022-08-20T11:59:30;8.57;;;1.65;;
52614;SDS011;38508;53.158;6.614;2022-08-20T12:01:56;7.53;;;1.42;;
52614;SDS011;38508;53.158;6.614;2022-08-20T12:04:22;7.43;;;1.45;;
52614;SDS011;38508;53.158;6.614;2022-08-20T12:06:48;8.48;;;1.30;;
52614;SDS011;38508;53.158;6.614;2022-08-20T12:09:14;5.60;;;1.20;;
52614;SDS011;38508;53.158;6.614;2022-08-20T12:11:41;7.65;;;1.50;;
52614;SDS011;38508;53.158;6.614;2022-08-20T12:14:07;5.97;;;1.25;;
52614;SDS011;38508;53.158;6.614;2022-08-20T12:16:33;8.68;;;1.63;;
52614;SDS011;38508;53.158;6.614;2022-08-20T12:18:58;6.93;;;1.45;;
52614;SDS011;38508;53.158;6.614;2022-08-20T12:21:24;7.03;;;1.20;;
52614;SDS011;38508;53.158;6.614;2022-08-20T12:23:49;7.93;;;1.35;;
52614;SDS011;38508;53.158;6.614;2022-08-20T12:26:15;6.90;;;1.17;;
52614;SDS011;38508;53.158;6.614;2022-08-20T12:28:41;7.80;;;1.40;;
52614;SDS011;38508;53.158;6.614;2022-08-20T12:31:07;5.38;;;1.27;;
52614;SDS011;38508;53.158;6.614;2022-08-20T12:33:33;7.20;;;1.20;;
52614;SDS011;38508;53.158;6.614;2022-08-20T12:35:59;3.70;;;1.02;;
52614;SDS011;38508;53.158;6.614;2022-08-20T12:38:24;10.18;;;1.40;;
52614;SDS011;38508;53.158;6.614;2022-08-20T12:40:50;8.43;;;1.55;;
52614;SDS011;38508;53.158;6.614;2022-08-20T12:43:16;5.53;;;1.20;;
52614;SDS011;38508;53.158;6.614;2022-08-20T12:45:41;6.35;;;1.00;;
52614;SDS011;38508;53.158;6.614;2022-08-20T12:48:09;4.47;;;1.25;;
52614;SDS011;38508;53.158;6.614;2022-08-20T12:50:36;8.07;;;1.45;;
52614;SDS011;38508;53.158;6.614;2022-08-20T12:53:04;6.75;;;1.30;;
52614;SDS011;38508;53.158;6.614;2022-08-20T12:55:30;4.65;;;1.10;;
52614;SDS011;38508;53.158;6.614;2022-08-20T12:57:58;8.02;;;1.27;;
52614;SDS011;38508;53.158;6.614;2022-08-20T13:00:33;5.38;;;1.10;;
52614;SDS011;38508;53.158;6.614;2022-08-20T13:03:06;5.97;;;1.33;;
52614;SDS011;38508;53.158;6.614;2022-08-20T13:05:32;4.65;;;1.40;;
52614;SDS011;38508;53.158;6.614;2022-08-20T13:07:59;4.65;;;1.40;;
52614;SDS011;38508;53.158;6.614;2022-08-20T13:10:27;8.55;;;1.67;;
52614;SDS011;38508;53.158;6.614;2022-08-20T13:12:57;9.02;;;1.30;;
52614;SDS011;38508;53.158;6.614;2022-08-20T13:15:23;4.45;;;1.33;;
52614;SDS011;38508;53.158;6.614;2022-08-20T13:18:00;8.35;;;1.45;;
52614;SDS011;38508;53.158;6.614;2022-08-20T13:20:27;6.80;;;1.30;;
52614;SDS011;38508;53.158;6.614;2022-08-20T13:22:53;9.82;;;1.40;;
52614;SDS011;38508;53.158;6.614;2022-08-20T13:25:19;7.05;;;1.40;;
52614;SDS011;38508;53.158;6.614;2022-08-20T13:27:46;8.35;;;1.48;;
52614;SDS011;38508;53.158;6.614;2022-08-20T13:30:14;7.10;;;1.08;;
52614;SDS011;38508;53.158;6.614;2022-08-20T13:32:41;8.07;;;1.30;;
52614;SDS011;38508;53.158;6.614;2022-08-20T13:35:07;7.25;;;1.33;;
52614;SDS011;38508;53.158;6.614;2022-08-20T13:37:35;6.65;;;1.35;;
52614;SDS011;38508;53.158;6.614;2022-08-20T13:40:01;5.47;;;1.15;;
52614;SDS011;38508;53.158;6.614;2022-08-20T13:42:28;9.48;;;1.70;;
52614;SDS011;38508;53.158;6.614;2022-08-20T13:44:53;8.38;;;1.27;;
52614;SDS011;38508;53.158;6.614;2022-08-20T13:47:26;6.88;;;1.42;;
52614;SDS011;38508;53.158;6.614;2022-08-20T13:50:14;7.93;;;1.30;;
52614;SDS011;38508;53.158;6.614;2022-08-20T13:52:42;6.03;;;1.40;;
52614;SDS011;38508;53.158;6.614;2022-08-20T13:55:09;6.50;;;1.30;;
52614;SDS011;38508;53.158;6.614;2022-08-20T13:57:37;6.47;;;1.42;;
52614;SDS011;38508;53.158;6.614;2022-08-20T14:00:04;8.32;;;1.30;;
52614;SDS011;38508;53.158;6.614;2022-08-20T14:02:35;7.18;;;1.30;;
52614;SDS011;38508;53.158;6.614;2022-08-20T14:05:01;10.63;;;1.42;;
52614;SDS011;38508;53.158;6.614;2022-08-20T14:07:27;6.60;;;1.38;;
52614;SDS011;38508;53.158;6.614;2022-08-20T14:09:55;5.43;;;1.38;;
52614;SDS011;38508;53.158;6.614;2022-08-20T14:12:23;4.30;;;1.10;;
52614;SDS011;38508;53.158;6.614;2022-08-20T14:14:49;6.47;;;1.40;;
52614;SDS011;38508;53.158;6.614;2022-08-20T14:19:49;8.43;;;1.38;;
52614;SDS011;38508;53.158;6.614;2022-08-20T14:22:16;8.13;;;1.50;;
52614;SDS011;38508;53.158;6.614;2022-08-20T14:24:43;11.93;;;2.10;;
52614;SDS011;38508;53.158;6.614;2022-08-20T14:27:09;7.55;;;1.70;;
52614;SDS011;38508;53.158;6.614;2022-08-20T14:29:37;5.07;;;1.33;;
52614;SDS011;38508;53.158;6.614;2022-08-20T14:32:04;7.57;;;1.50;;
52614;SDS011;38508;53.158;6.614;2022-08-20T14:34:31;4.47;;;1.25;;
52614;SDS011;38508;53.158;6.614;2022-08-20T14:37:08;8.88;;;1.42;;
52614;SDS011;38508;53.158;6.614;2022-08-20T14:39:34;7.25;;;1.27;;
52614;SDS011;38508;53.158;6.614;2022-08-20T14:41:59;6.43;;;1.08;;
52614;SDS011;38508;53.158;6.614;2022-08-20T14:44:25;6.95;;;1.55;;
52614;SDS011;38508;53.158;6.614;2022-08-20T14:46:53;12.25;;;1.50;;
52614;SDS011;38508;53.158;6.614;2022-08-20T14:49:19;5.95;;;1.50;;
52614;SDS011;38508;53.158;6.614;2022-08-20T14:51:45;5.90;;;1.27;;
52614;SDS011;38508;53.158;6.614;2022-08-20T14:54:10;11.75;;;1.67;;
52614;SDS011;38508;53.158;6.614;2022-08-20T14:56:36;6.63;;;1.35;;
52614;SDS011;38508;53.158;6.614;2022-08-20T14:59:02;7.25;;;1.50;;
52614;SDS011;38508;53.158;6.614;2022-08-20T15:01:27;6.40;;;1.55;;
52614;SDS011;38508;53.158;6.614;2022-08-20T15:03:53;9.73;;;2.05;;